Time;durP1;ratioP1;P1;durP2;ratioP2;P2;SDS_P1;SDS_P2;PMS_P1;PMS_P2;Temp;Humidity;BMP_temperature;BMP_pressure;BME280_temperature;BME280_humidity;BME280_pressure;Samples;Min_cycle;Max_cycle;Signal;HPM_P1;HPM_P2
2022/11/05 00:17:38;;;;;;;;;12.75;12.00;;;;;10.13;67.44;101146.34;4992860;28;46332;-78
2022/11/05 00:20:05;;;;;;;;;14.00;12.00;;;;;10.10;67.41;101136.88;5056926;28;45566;-78
2022/11/05 00:25:18;;;;;;;;;13.50;12.50;;;;;10.06;67.53;101142.41;5074897;28;45591;-77
2022/11/05 00:27:51;;;;;;;;;12.50;11.50;;;;;9.95;67.61;101137.81;5075120;28;46208;-80
2022/11/05 00:30:21;;;;;;;;;11.25;8.25;;;;;10.03;67.72;101142.59;5074768;28;45815;-79
2022/11/05 00:32:47;;;;;;;;;13.00;11.00;;;;;10.02;67.68;101143.53;5074721;28;45805;-78
2022/11/05 00:35:14;;;;;;;;;10.75;10.75;;;;;10.01;67.96;101147.06;5074413;28;45688;-78
2022/11/05 00:37:39;;;;;;;;;16.25;12.50;;;;;9.96;67.59;101139.50;5074476;28;46053;-80
2022/11/05 00:40:06;;;;;;;;;11.00;10.25;;;;;9.88;67.78;101140.91;5074758;28;45625;-77
2022/11/05 00:45:15;;;;;;;;;12.25;10.50;;;;;9.88;67.89;101149.56;5073827;28;45573;-78
2022/11/05 00:54:23;;;;;;;;;11.50;10.25;;;;;9.86;68.00;101158.47;4991383;28;45814;-79
2022/11/05 00:56:48;;;;;;;;;13.50;11.50;;;;;9.82;68.02;101151.75;4975043;28;46782;-78
2022/11/05 00:59:13;;;;;;;;;11.00;10.00;;;;;9.81;68.28;101150.06;4992638;28;45790;-78
2022/11/05 01:01:39;;;;;;;;;10.25;8.50;;;;;9.78;68.17;101161.53;4992112;28;45691;-78
2022/11/05 01:07:26;;;;;;;;;12.00;10.50;;;;;9.67;68.22;101132.53;4990074;28;45902;-78
2022/11/05 01:09:51;;;;;;;;;12.00;10.75;;;;;9.74;68.33;101146.94;4990449;28;45713;-77
2022/11/05 01:12:16;;;;;;;;;10.00;9.00;;;;;9.73;68.09;101150.50;4990840;28;46195;-77
2022/11/05 01:14:42;;;;;;;;;10.00;10.00;;;;;9.63;68.22;101134.50;4990791;28;45727;-79
2022/11/05 01:17:07;;;;;;;;;9.75;8.25;;;;;9.74;68.39;101146.09;4990756;28;46053;-77
2022/11/05 01:22:54;;;;;;;;;10.50;8.00;;;;;9.80;68.18;101150.97;4990120;28;45712;-79
2022/11/05 01:25:20;;;;;;;;;15.50;12.50;;;;;9.77;68.06;101140.72;4990785;28;45853;-77
2022/11/05 01:27:45;;;;;;;;;10.75;9.25;;;;;9.82;68.00;101138.66;5043459;28;46466;-77
2022/11/05 01:30:11;;;;;;;;;12.25;11.25;;;;;9.82;68.19;101134.28;5056005;28;46875;-79
2022/11/05 01:32:37;;;;;;;;;11.50;10.50;;;;;9.89;67.94;101143.41;5057218;28;45940;-79
2022/11/05 01:38:24;;;;;;;;;10.25;10.00;;;;;9.94;67.82;101151.84;5056501;28;46084;-79
2022/11/05 01:40:50;;;;;;;;;6.00;6.00;;;;;9.94;67.96;101148.38;5056575;28;45971;-79
2022/11/05 01:43:17;;;;;;;;;10.00;10.00;;;;;9.85;68.24;101138.47;5054838;28;45635;-79
2022/11/05 01:45:46;;;;;;;;;12.00;11.00;;;;;9.89;68.10;101146.03;5071249;28;45612;-78
2022/11/05 01:48:17;;;;;;;;;9.75;8.25;;;;;9.84;68.15;101144.63;5055719;28;46655;-78
2022/11/05 01:54:09;;;;;;;;;12.50;11.75;;;;;9.80;68.46;101151.81;5066507;28;45580;-79
2022/11/05 01:56:40;;;;;;;;;10.25;8.75;;;;;9.74;68.21;101148.72;5059254;28;45782;-78
2022/11/05 01:59:18;;;;;;;;;14.00;8.25;;;;;9.60;68.42;101129.47;5058260;28;48995;-78
2022/11/05 02:01:44;;;;;;;;;8.75;7.50;;;;;9.74;68.19;101164.41;5058423;28;47280;-77
2022/11/05 02:04:37;;;;;;;;;8.50;6.00;;;;;9.71;68.31;101160.22;5075849;28;45629;-79
2022/11/05 02:07:06;;;;;;;;;8.75;8.00;;;;;9.59;68.31;101132.16;5059764;28;45582;-79
2022/11/05 02:09:42;;;;;;;;;10.50;10.00;;;;;9.66;68.37;101146.56;5075464;28;46364;-78
2022/11/05 02:12:09;;;;;;;;;7.75;7.00;;;;;9.68;68.28;101155.16;5075719;28;46067;-78
2022/11/05 02:14:34;;;;;;;;;7.00;7.00;;;;;9.64;68.32;101157.13;5075573;28;45880;-78
2022/11/05 02:17:26;;;;;;;;;11.25;6.50;;;;;9.61;68.40;101157.28;5075509;28;45495;-78
2022/11/05 02:19:55;;;;;;;;;9.50;7.25;;;;;9.59;68.71;101155.69;5064023;27;45822;-78
2022/11/05 02:22:35;;;;;;;;;7.00;6.75;;;;;9.54;68.67;101145.50;5075429;28;45986;-78
2022/11/05 02:25:19;;;;;;;;;10.75;10.00;;;;;9.53;68.81;101145.59;5075306;28;45625;-79
2022/11/05 02:28:20;;;;;;;;;8.25;7.00;;;;;9.49;68.80;101142.31;5075631;28;45743;-79
2022/11/05 02:30:52;;;;;;;;;8.50;7.75;;;;;9.48;68.91;101155.47;5075367;28;46513;-78
2022/11/05 02:33:36;;;;;;;;;7.25;7.00;;;;;9.46;68.79;101157.31;5075327;28;46392;-79
2022/11/05 02:36:22;;;;;;;;;11.25;9.00;;;;;9.43;68.98;101158.34;5074608;28;45572;-80
2022/11/05 02:39:16;;;;;;;;;8.00;7.25;;;;;9.39;69.21;101169.09;5075257;28;45605;-78
2022/11/05 02:41:47;;;;;;;;;10.50;9.50;;;;;9.39;69.29;101162.09;5075224;28;45603;-78
2022/11/05 02:44:27;;;;;;;;;8.75;6.50;;;;;9.38;69.15;101167.41;5074939;28;47088;-79
2022/11/05 02:47:01;;;;;;;;;1.00;1.00;;;;;9.34;69.30;101168.50;5075377;28;45922;-79
2022/11/05 02:53:18;;;;;;;;;10.25;8.00;;;;;9.31;69.58;101156.44;5075101;28;45898;-78
2022/11/05 02:55:51;;;;;;;;;6.25;5.75;;;;;9.24;69.54;101150.72;5075154;28;46099;-79
2022/11/05 02:58:17;;;;;;;;;9.50;7.00;;;;;9.25;69.69;101130.63;5074944;28;45922;-79
2022/11/05 03:00:50;;;;;;;;;7.00;6.75;;;;;9.37;69.49;101144.78;5074962;28;45848;-79
2022/11/05 03:03:39;;;;;;;;;9.00;7.00;;;;;9.42;69.33;101147.97;5074642;28;45747;-79
2022/11/05 03:09:29;;;;;;;;;7.00;6.00;;;;;9.50;69.53;101143.16;5074750;28;45677;-78
2022/11/05 03:12:13;;;;;;;;;10.00;7.00;;;;;9.52;69.39;101139.50;5075524;28;45768;-78
2022/11/05 03:15:11;;;;;;;;;6.75;6.75;;;;;9.53;69.51;101141.19;5075169;28;45636;-78
2022/11/05 03:18:15;;;;;;;;;9.50;7.00;;;;;9.58;69.18;101144.38;5075174;28;45838;-76
2022/11/05 03:20:50;;;;;;;;;8.00;6.75;;;;;9.61;69.37;101143.34;5074788;28;45870;-77
2022/11/05 03:23:58;;;;;;;;;7.00;6.00;;;;;9.63;69.11;101138.88;5074416;28;45957;-78
2022/11/05 03:26:29;;;;;;;;;7.00;6.75;;;;;9.65;69.22;101135.25;5031574;28;45838;-80
2022/11/05 03:29:18;;;;;;;;;10.50;7.00;;;;;9.67;69.36;101140.38;5031664;28;45769;-78
2022/11/05 03:31:48;;;;;;;;;7.50;7.00;;;;;9.72;69.26;101143.56;5031402;28;45687;-79
2022/11/05 03:34:16;;;;;;;;;6.25;5.00;;;;;9.68;69.22;101132.44;5031466;28;45766;-79
2022/11/05 03:36:49;;;;;;;;;6.00;5.25;;;;;9.78;68.88;101135.34;5031169;28;45829;-78
2022/11/05 03:39:20;;;;;;;;;6.75;6.00;;;;;9.83;69.02;101135.94;5031242;28;46326;-78
2022/11/05 03:41:49;;;;;;;;;5.75;5.75;;;;;9.88;68.94;101151.38;5031239;28;45893;-78
2022/11/05 03:44:22;;;;;;;;;7.00;6.75;;;;;9.91;68.91;101141.56;5014828;28;46011;-78
2022/11/05 03:46:50;;;;;;;;;7.75;6.00;;;;;9.93;68.96;101137.06;5031184;28;48267;-77
2022/11/05 03:52:24;;;;;;;;;6.75;6.50;;;;;10.02;68.71;101128.66;5031459;28;45941;-78
2022/11/05 03:54:50;;;;;;;;;7.50;6.00;;;;;10.05;68.53;101128.47;5031148;28;45857;-78
2022/11/05 03:57:29;;;;;;;;;4.75;4.75;;;;;10.09;68.47;101126.53;5031013;28;46423;-78
2022/11/05 03:59:55;;;;;;;;;4.25;3.50;;;;;10.11;68.51;101132.50;5032040;28;46652;-78
2022/11/05 04:02:22;;;;;;;;;6.25;6.25;;;;;10.15;68.63;101133.19;5061585;28;45825;-77
2022/11/05 04:13:37;;;;;;;;;4.25;3.00;;;;;10.22;68.31;101137.97;5073839;28;45995;-78
2022/11/05 04:18:47;;;;;;;;;3.75;3.00;;;;;10.25;68.45;101134.31;5073191;28;46296;-79
2022/11/05 04:24:33;;;;;;;;;5.00;3.00;;;;;10.26;68.35;101136.81;5074459;28;45587;-79
2022/11/05 04:26:59;;;;;;;;;9.25;7.00;;;;;10.25;68.14;101139.56;5056225;28;45549;-77
2022/11/05 04:32:08;;;;;;;;;3.00;2.75;;;;;10.30;68.45;101145.34;5073428;28;46138;-78
2022/11/05 04:34:33;;;;;;;;;4.75;3.00;;;;;10.32;68.17;101153.94;5073620;28;45574;-78
2022/11/05 04:40:20;;;;;;;;;2.25;1.75;;;;;10.28;68.12;101153.28;5073242;28;45967;-77
2022/11/05 04:42:46;;;;;;;;;2.00;2.00;;;;;10.27;68.17;101150.75;5073834;28;45657;-79
2022/11/05 04:45:11;;;;;;;;;5.00;3.00;;;;;10.30;68.34;101153.22;5073704;28;45541;-79
2022/11/05 04:47:37;;;;;;;;;3.00;3.00;;;;;10.25;68.38;101145.66;5073544;28;45754;-79
2022/11/05 04:50:02;;;;;;;;;8.50;5.00;;;;;10.20;68.18;101131.16;5073684;28;45673;-78
2022/11/05 04:55:49;;;;;;;;;4.25;3.00;;;;;10.29;68.27;101149.75;5061802;28;45842;-80
2022/11/05 04:58:15;;;;;;;;;3.00;2.00;;;;;10.17;68.02;101128.69;5073211;28;45712;-80
2022/11/05 05:00:41;;;;;;;;;6.50;4.25;;;;;10.31;68.06;101153.09;5075412;28;45703;-80
2022/11/05 05:03:06;;;;;;;;;3.00;3.00;;;;;10.31;67.94;101160.94;5076692;28;46232;-78
2022/11/05 05:05:31;;;;;;;;;5.00;2.25;;;;;10.30;68.11;101161.06;5076431;28;45794;-77
2022/11/05 05:08:01;;;;;;;;;3.75;3.75;;;;;10.29;67.88;101162.84;5076730;28;45615;-78
2022/11/05 05:10:26;;;;;;;;;7.75;3.75;;;;;10.16;67.99;101150.53;5076604;28;45554;-79
2022/11/05 05:12:52;;;;;;;;;3.00;2.75;;;;;10.23;67.93;101163.22;5076478;28;45821;-78
2022/11/05 05:15:17;;;;;;;;;4.25;3.25;;;;;10.27;68.09;101169.09;5076504;28;45945;-78
2022/11/05 05:17:42;;;;;;;;;3.75;3.00;;;;;10.18;67.99;101167.03;5076818;28;45663;-79
2022/11/05 05:26:14;;;;;;;;;6.00;6.00;;;;;10.14;68.20;101181.22;5076257;28;45532;-78
2022/11/05 05:28:40;;;;;;;;;4.25;3.00;;;;;10.15;68.29;101177.69;5058392;28;45940;-81
2022/11/05 05:31:05;;;;;;;;;3.00;3.00;;;;;10.10;68.34;101175.31;5076411;28;46389;-80
2022/11/05 05:33:30;;;;;;;;;5.50;4.50;;;;;10.15;68.31;101185.53;5076498;28;46339;-78
2022/11/05 05:35:57;;;;;;;;;3.00;3.00;;;;;10.16;68.31;101179.34;5076181;28;45646;-77
2022/11/05 05:38:22;;;;;;;;;4.25;4.25;;;;;10.13;68.35;101177.75;5077211;28;45670;-77
2022/11/05 05:40:49;;;;;;;;;4.25;4.00;;;;;10.13;68.34;101176.91;5076391;28;45587;-78
2022/11/05 05:43:15;;;;;;;;;4.75;4.75;;;;;10.08;68.28;101164.97;5076327;28;47260;-79
2022/11/05 05:45:41;;;;;;;;;5.25;3.75;;;;;10.09;68.02;101171.84;5074808;28;45760;-77
2022/11/05 05:48:06;;;;;;;;;5.00;5.00;;;;;10.13;68.42;101172.53;5075681;28;45656;-79
2022/11/05 05:50:33;;;;;;;;;6.25;3.00;;;;;10.19;68.29;101185.28;5057393;28;46630;-79
2022/11/05 05:56:20;;;;;;;;;4.00;4.00;;;;;10.23;67.94;101176.31;5068720;28;45862;-78
2022/11/05 05:58:46;;;;;;;;;5.00;3.00;;;;;10.26;68.07;101177.88;5057521;28;46057;-79
2022/11/05 06:01:13;;;;;;;;;4.25;3.00;;;;;10.24;68.10;101172.75;5073591;28;47935;-81
2022/11/05 06:03:39;;;;;;;;;2.50;2.00;;;;;10.28;68.30;101176.88;5075417;28;46336;-80
2022/11/05 06:06:07;;;;;;;;;6.25;4.00;;;;;10.29;68.05;101185.56;5075424;28;45581;-82
2022/11/05 06:08:33;;;;;;;;;3.00;2.50;;;;;10.29;68.11;101191.66;5075503;28;45930;-78
2022/11/05 06:11:00;;;;;;;;;3.00;3.00;;;;;10.29;68.05;101193.44;5075124;28;45682;-80
2022/11/05 06:13:26;;;;;;;;;3.00;3.00;;;;;10.25;68.36;101176.22;5075320;28;45917;-75
2022/11/05 06:15:52;;;;;;;;;3.00;3.00;;;;;10.32;68.14;101185.38;5074127;28;45636;-77
2022/11/05 06:18:17;;;;;;;;;1.00;1.00;;;;;10.30;67.86;101182.03;5075530;28;45733;-78
2022/11/05 06:20:43;;;;;;;;;2.50;2.50;;;;;10.28;67.90;101178.63;5074503;28;45487;-78
2022/11/05 06:26:30;;;;;;;;;5.50;3.00;;;;;10.36;67.94;101197.38;5074862;28;45886;-80
2022/11/05 06:28:56;;;;;;;;;3.00;2.00;;;;;10.33;67.89;101190.53;5075153;28;45862;-77
2022/11/05 06:31:22;;;;;;;;;4.00;2.75;;;;;10.35;67.96;101204.38;5075732;28;46461;-77
2022/11/05 06:33:47;;;;;;;;;3.25;3.00;;;;;10.32;68.00;101203.69;5075750;28;46928;-78
2022/11/05 06:36:15;;;;;;;;;3.75;3.00;;;;;10.32;68.15;101207.16;5057489;28;45799;-79
2022/11/05 06:38:40;;;;;;;;;3.00;2.00;;;;;10.32;67.92;101214.19;5076178;28;45790;-79
2022/11/05 06:41:05;;;;;;;;;2.50;2.00;;;;;10.26;68.06;101209.31;5075340;28;47218;-78
2022/11/05 06:43:32;;;;;;;;;4.50;4.00;;;;;10.25;67.93;101205.88;5074813;28;45597;-76
2022/11/05 06:46:00;;;;;;;;;4.75;4.25;;;;;10.26;67.96;101204.06;5074999;28;45584;-79
2022/11/05 06:48:28;;;;;;;;;3.50;2.00;;;;;10.19;67.90;101193.16;5074641;28;45677;-79
2022/11/05 06:50:54;;;;;;;;;4.75;3.00;;;;;10.28;68.25;101208.28;5073313;28;46567;-77
2022/11/05 06:56:41;;;;;;;;;2.75;2.00;;;;;10.18;67.78;101206.31;5073614;28;45636;-78
2022/11/05 06:59:07;;;;;;;;;4.25;3.25;;;;;10.14;68.13;101203.03;5075087;28;45807;-76
2022/11/05 07:01:36;;;;;;;;;4.00;2.00;;;;;10.17;68.09;101209.88;5074850;28;45615;-78
2022/11/05 07:04:03;;;;;;;;;2.25;2.00;;;;;10.16;68.19;101218.63;5074729;28;45662;-78
2022/11/05 07:06:28;;;;;;;;;5.75;4.50;;;;;10.15;68.22;101214.34;5056388;28;45661;-79
2022/11/05 07:08:55;;;;;;;;;3.00;3.00;;;;;10.18;68.08;101214.16;5056449;28;45663;-78
2022/11/05 07:11:20;;;;;;;;;2.25;2.00;;;;;10.18;68.16;101227.25;5074436;28;46594;-78
2022/11/05 07:13:45;;;;;;;;;3.00;2.75;;;;;10.17;67.98;101233.44;5074575;28;45655;-78
2022/11/05 07:16:11;;;;;;;;;3.25;2.00;;;;;10.14;68.15;101229.19;5074330;28;45764;-80
2022/11/05 07:18:36;;;;;;;;;3.50;2.75;;;;;10.11;68.09;101224.97;5074526;28;45635;-77
2022/11/05 07:21:02;;;;;;;;;4.25;2.75;;;;;10.08;68.27;101221.72;5074243;28;47055;-78
2022/11/05 07:26:49;;;;;;;;;3.25;2.00;;;;;10.08;68.28;101222.56;5074047;28;45681;-76
2022/11/05 07:29:14;;;;;;;;;4.25;3.75;;;;;10.13;68.01;101229.28;5074451;28;45817;-77
2022/11/05 07:31:40;;;;;;;;;3.00;2.50;;;;;10.09;68.38;101215.53;5074423;28;46278;-77
2022/11/05 07:34:05;;;;;;;;;4.50;2.00;;;;;10.14;68.26;101221.34;5074644;28;45664;-78
2022/11/05 07:36:30;;;;;;;;;2.00;1.50;;;;;10.19;68.13;101234.19;5074568;28;45716;-76
2022/11/05 07:38:56;;;;;;;;;5.00;3.00;;;;;10.24;67.96;101245.22;5074054;28;45678;-78
2022/11/05 07:41:21;;;;;;;;;3.25;3.00;;;;;10.22;67.85;101239.22;5074050;28;47589;-77
2022/11/05 07:43:46;;;;;;;;;3.75;2.00;;;;;10.29;68.12;101246.66;5072738;28;46044;-79
2022/11/05 07:46:13;;;;;;;;;3.00;3.00;;;;;10.33;67.88;101253.38;5055948;28;45907;-77
2022/11/05 07:48:38;;;;;;;;;6.00;3.00;;;;;10.37;68.03;101249.63;5055576;28;45616;-77
2022/11/05 07:51:05;;;;;;;;;4.50;2.75;;;;;10.41;67.70;101248.53;5073805;28;47194;-79
2022/11/05 07:57:20;;;;;;;;;4.25;3.00;;;;;10.51;67.78;101243.59;5072073;28;45732;-78
2022/11/05 07:59:46;;;;;;;;;6.75;5.00;;;;;10.60;67.58;101244.78;5074154;28;45796;-78
2022/11/05 08:02:11;;;;;;;;;11.75;9.25;;;;;10.64;67.67;101252.38;5073871;28;45659;-79
2022/11/05 08:04:39;;;;;;;;;6.00;3.00;;;;;10.70;67.33;101245.91;5073956;28;45731;-79
2022/11/05 08:07:04;;;;;;;;;2.25;2.25;;;;;10.62;67.41;101221.97;5073858;28;45977;-79
2022/11/05 08:09:29;;;;;;;;;3.50;3.00;;;;;10.78;67.39;101246.28;5073938;28;46031;-79
2022/11/05 08:11:56;;;;;;;;;4.00;4.00;;;;;10.83;67.19;101250.31;5073769;28;45611;-80
2022/11/05 08:14:21;;;;;;;;;3.25;2.75;;;;;10.88;67.30;101248.25;5074186;28;46030;-78
2022/11/05 08:16:47;;;;;;;;;5.00;3.75;;;;;10.90;67.16;101256.84;5054073;28;45714;-79
2022/11/05 08:19:12;;;;;;;;;1.00;1.00;;;;;10.94;67.21;101253.13;5073930;28;45513;-77
2022/11/05 08:21:37;;;;;;;;;3.00;2.50;;;;;10.98;67.05;101255.53;5073752;28;45691;-79
2022/11/05 08:27:24;;;;;;;;;2.00;2.00;;;;;11.05;66.84;101255.06;5072785;28;45706;-78
2022/11/05 08:29:50;;;;;;;;;3.75;3.00;;;;;11.09;66.68;101255.72;5072897;28;45566;-78
2022/11/05 08:32:15;;;;;;;;;5.00;2.25;;;;;11.11;66.72;101259.09;5073806;28;45582;-77
2022/11/05 08:34:41;;;;;;;;;5.00;4.00;;;;;11.14;66.61;101264.97;5073954;28;45717;-78
2022/11/05 08:37:06;;;;;;;;;2.50;2.50;;;;;11.16;66.57;101255.25;5076640;28;45433;-78
2022/11/05 08:43:02;;;;;;;;;7.25;6.25;;;;;11.22;66.49;101261.88;5076591;28;45672;-79
2022/11/05 08:45:28;;;;;;;;;3.00;3.00;;;;;11.25;66.38;101267.75;5076729;28;45812;-79
2022/11/05 08:48:07;;;;;;;;;3.75;3.00;;;;;11.30;66.17;101265.69;5076943;28;45674;-77
2022/11/05 08:50:33;;;;;;;;;3.50;3.00;;;;;11.34;66.34;101269.78;5077288;28;45950;-77
2022/11/05 08:52:59;;;;;;;;;2.25;2.00;;;;;11.39;66.10;101272.13;5076535;28;46493;-78
2022/11/05 08:55:25;;;;;;;;;2.50;2.00;;;;;11.40;66.01;101265.09;5057968;28;46891;-78
2022/11/05 08:57:58;;;;;;;;;2.75;2.00;;;;;11.50;66.04;101282.75;5075582;28;45590;-78
2022/11/05 09:00:25;;;;;;;;;4.00;4.00;;;;;11.52;65.94;101283.53;5076868;28;45795;-77
2022/11/05 09:02:51;;;;;;;;;2.00;2.00;;;;;11.58;66.00;101277.88;5076442;28;46558;-78
2022/11/05 09:05:16;;;;;;;;;3.25;2.25;;;;;11.65;65.68;101286.22;5076395;28;46807;-78
2022/11/05 09:07:42;;;;;;;;;3.00;2.75;;;;;11.71;65.75;101280.56;5075743;28;45713;-78
2022/11/05 09:10:08;;;;;;;;;2.50;2.00;;;;;11.74;65.68;101277.75;5075823;28;45961;-77
2022/11/05 09:12:33;;;;;;;;;3.75;3.00;;;;;11.78;65.30;101274.00;5076158;28;47360;-78
2022/11/05 09:14:58;;;;;;;;;2.50;2.00;;;;;11.84;65.34;101270.13;5057503;28;45938;-80
2022/11/05 09:17:24;;;;;;;;;1.75;1.50;;;;;11.82;65.28;101258.91;5076001;28;45636;-78
2022/11/05 09:19:49;;;;;;;;;1.50;1.50;;;;;11.85;65.06;101259.53;5076719;28;45753;-79
2022/11/05 09:22:14;;;;;;;;;2.00;2.00;;;;;11.97;65.22;101271.84;5076209;28;45589;-78
2022/11/05 09:28:32;;;;;;;;;2.75;2.00;;;;;12.11;64.96;101258.63;5075875;28;45708;-78
2022/11/05 09:30:57;;;;;;;;;2.00;2.00;;;;;12.16;64.51;101248.66;5033422;28;45889;-79
2022/11/05 09:33:24;;;;;;;;;2.25;2.00;;;;;12.18;64.12;101253.81;5033972;28;46622;-78
2022/11/05 09:35:51;;;;;;;;;2.00;1.75;;;;;12.25;64.45;101259.50;5032707;28;46503;-76
2022/11/05 09:38:17;;;;;;;;;2.00;2.00;;;;;12.28;64.28;101248.78;5032731;28;45716;-79
2022/11/05 09:41:06;;;;;;;;;2.00;2.00;;;;;12.36;63.99;101249.91;5033234;28;45697;-78
2022/11/05 09:43:59;;;;;;;;;2.00;2.00;;;;;12.20;63.83;101217.75;4994256;28;46499;-80
2022/11/05 09:46:27;;;;;;;;;1.75;1.00;;;;;12.49;63.44;101258.66;4915158;28;48144;-76
2022/11/05 09:49:04;;;;;;;;;1.75;1.75;;;;;12.46;63.28;101247.53;4916144;28;45702;-81
2022/11/05 09:51:30;;;;;;;;;1.00;1.00;;;;;12.58;63.14;101265.91;4916235;28;45988;-80
2022/11/05 09:53:58;;;;;;;;;1.25;1.00;;;;;12.63;62.89;101265.63;4916099;28;46566;-79
2022/11/05 09:56:33;;;;;;;;;1.00;1.00;;;;;12.54;62.81;101242.56;4914576;28;45992;-79
2022/11/05 09:59:10;;;;;;;;;2.00;0.50;;;;;12.69;62.74;101265.16;4914797;28;45825;-78
2022/11/05 10:01:37;;;;;;;;;2.25;1.75;;;;;12.70;62.56;101263.38;4915512;28;45772;-78
2022/11/05 10:04:12;;;;;;;;;0.25;0.25;;;;;12.79;62.45;101263.59;4914271;28;47688;-78
2022/11/05 10:06:46;;;;;;;;;3.75;1.25;;;;;12.72;62.05;101251.81;4916417;28;46104;-80
2022/11/05 10:09:36;;;;;;;;;1.00;1.00;;;;;12.87;62.30;101268.31;4948957;28;45919;-78
2022/11/05 10:12:06;;;;;;;;;0.00;0.00;;;;;12.80;62.35;101254.75;4934909;28;45943;-78
2022/11/05 10:14:37;;;;;;;;;3.00;1.50;;;;;12.85;61.71;101257.88;4934294;28;47517;-78
2022/11/05 10:17:24;;;;;;;;;1.75;1.75;;;;;12.93;61.40;101257.34;4934288;28;46207;-78
2022/11/05 10:20:01;;;;;;;;;1.25;1.00;;;;;12.96;61.74;101252.72;4942075;28;45607;-78
2022/11/05 10:22:26;;;;;;;;;2.00;1.00;;;;;12.90;62.27;101229.47;4978507;28;45743;-78
2022/11/05 10:24:53;;;;;;;;;1.00;1.00;;;;;12.97;61.89;101238.63;5056406;28;48156;-78
2022/11/05 10:27:23;;;;;;;;;1.00;1.00;;;;;13.13;61.82;101250.72;5073704;28;46580;-78
2022/11/05 10:29:50;;;;;;;;;1.50;1.00;;;;;13.16;61.64;101253.13;5074468;28;45818;-78
2022/11/05 10:32:21;;;;;;;;;1.00;1.00;;;;;13.25;61.27;101258.56;5076655;28;45795;-78
2022/11/05 10:34:49;;;;;;;;;2.25;1.00;;;;;13.16;61.74;101237.34;5077839;28;45872;-77
2022/11/05 10:37:15;;;;;;;;;1.00;1.00;;;;;13.02;61.30;101209.34;5058696;28;47719;-77
2022/11/05 10:39:40;;;;;;;;;3.00;2.75;;;;;13.16;61.55;101226.81;5075685;28;45622;-78
2022/11/05 10:42:36;;;;;;;;;3.00;3.00;;;;;13.46;61.47;101261.44;5075881;28;45881;-76
2022/11/05 10:45:20;;;;;;;;;2.00;2.00;;;;;13.52;61.21;101265.44;5075285;27;45679;-77
2022/11/05 10:48:03;;;;;;;;;2.00;2.00;;;;;13.54;61.37;101267.00;5075887;28;46336;-78
2022/11/05 10:50:29;;;;;;;;;1.75;1.75;;;;;13.57;60.95;101258.88;5075956;28;45730;-79
2022/11/05 10:53:15;;;;;;;;;4.00;4.00;;;;;13.58;61.28;101264.97;5075377;28;45721;-77
2022/11/05 10:55:45;;;;;;;;;2.25;2.25;;;;;13.66;61.14;101267.88;5071352;28;45739;-79
2022/11/05 10:58:16;;;;;;;;;3.00;3.00;;;;;13.70;61.17;101269.34;5072252;28;45787;-77
2022/11/05 11:00:43;;;;;;;;;0.00;0.00;;;;;13.71;60.70;101265.78;5072876;28;45653;-79
2022/11/05 11:03:47;;;;;;;;;1.75;1.00;;;;;13.72;61.28;101265.63;5074280;28;45954;-78
2022/11/05 11:06:26;;;;;;;;;1.25;1.25;;;;;13.74;61.30;101273.44;5074390;28;45760;-77
2022/11/05 11:11:59;;;;;;;;;1.25;1.25;;;;;13.73;60.93;101243.63;5073683;28;45686;-76
2022/11/05 11:14:25;;;;;;;;;1.25;1.00;;;;;13.72;60.96;101244.56;5074506;28;45703;-78
2022/11/05 11:16:56;;;;;;;;;4.25;2.00;;;;;13.85;60.72;101253.25;5074034;28;45578;-77
2022/11/05 11:19:30;;;;;;;;;2.00;1.75;;;;;13.89;61.11;101253.84;5074283;28;45948;-77
2022/11/05 11:22:01;;;;;;;;;1.00;1.00;;;;;13.92;60.98;101247.53;5074345;28;45528;-77
2022/11/05 11:27:48;;;;;;;;;1.00;1.00;;;;;13.94;60.98;101242.97;5073348;28;45706;-77
2022/11/05 11:30:19;;;;;;;;;1.50;1.50;;;;;13.99;60.79;101246.94;5074385;28;46165;-78
2022/11/05 11:32:46;;;;;;;;;3.00;2.75;;;;;14.03;61.29;101248.41;5073632;28;45627;-77
2022/11/05 11:35:30;;;;;;;;;3.00;2.00;;;;;14.05;61.13;101245.63;5074234;28;45789;-77
2022/11/05 11:37:59;;;;;;;;;4.00;2.00;;;;;13.97;61.05;101226.94;5073955;28;46536;-76
2022/11/05 11:43:47;;;;;;;;;3.00;2.00;;;;;14.11;60.76;101235.50;5072358;28;45609;-77
2022/11/05 11:46:18;;;;;;;;;2.00;1.50;;;;;14.18;60.65;101231.44;5073652;28;45705;-78
2022/11/05 11:48:48;;;;;;;;;4.00;3.25;;;;;14.21;60.74;101232.97;5073867;28;45504;-77
2022/11/05 11:51:35;;;;;;;;;3.00;3.00;;;;;14.24;60.60;101227.50;5074000;28;45722;-77
2022/11/05 11:54:02;;;;;;;;;3.25;2.75;;;;;14.26;60.48;101233.47;5074082;28;45792;-77
2022/11/05 12:00:02;;;;;;;;;4.75;2.75;;;;;14.29;60.47;101234.09;5064458;28;46403;-75
2022/11/05 12:02:52;;;;;;;;;3.00;3.00;;;;;14.30;59.92;101230.47;5073357;28;46251;-78
2022/11/05 12:05:42;;;;;;;;;3.00;3.00;;;;;14.31;60.15;101231.31;5072838;28;45768;-77
2022/11/05 12:08:32;;;;;;;;;4.50;3.00;;;;;14.33;60.35;101234.69;5073980;28;45874;-76
2022/11/05 12:11:14;;;;;;;;;3.50;3.50;;;;;14.37;60.22;101230.03;5072240;28;47207;-78
2022/11/05 12:14:01;;;;;;;;;3.50;2.75;;;;;14.40;59.95;101225.41;5073215;28;45919;-79
2022/11/05 12:16:52;;;;;;;;;1.00;1.00;;;;;14.34;59.76;101214.44;5073087;28;45760;-79
2022/11/05 12:19:52;;;;;;;;;2.00;2.00;;;;;14.37;60.14;101212.44;5073482;28;45820;-79
2022/11/05 12:22:29;;;;;;;;;2.25;1.00;;;;;14.40;59.84;101216.66;5073512;28;46761;-79
2022/11/05 12:28:28;;;;;;;;;2.00;2.00;;;;;14.49;59.78;101210.66;5072294;28;45793;-79
2022/11/05 12:31:04;;;;;;;;;2.50;1.50;;;;;14.50;59.24;101201.78;5072184;28;45878;-80
2022/11/05 12:34:04;;;;;;;;;4.00;2.50;;;;;14.53;59.74;101217.34;5072999;28;46412;-78
2022/11/05 12:37:08;;;;;;;;;2.00;1.00;;;;;14.55;59.15;101203.09;5073508;28;45549;-77
2022/11/05 12:50:20;;;;;;;;;2.50;2.00;;;;;14.53;58.64;101183.06;5028058;28;46192;-77
2022/11/05 12:53:15;;;;;;;;;1.25;1.00;;;;;14.53;58.71;101176.00;5029753;28;45761;-77
2022/11/05 12:55:48;;;;;;;;;1.75;1.75;;;;;14.54;58.61;101179.47;5031193;28;45836;-84
2022/11/05 12:58:28;;;;;;;;;2.75;2.00;;;;;14.37;58.95;101148.31;5030086;28;45737;-81
2022/11/05 13:01:02;;;;;;;;;1.00;1.00;;;;;14.48;58.51;101178.16;5029754;28;46085;-79
2022/11/05 13:03:41;;;;;;;;;2.25;2.25;;;;;14.41;58.43;101162.97;5030132;28;45631;-78
2022/11/05 13:06:16;;;;;;;;;2.00;2.00;;;;;14.36;58.52;101173.81;5030411;28;45903;-77
2022/11/05 13:09:13;;;;;;;;;2.00;2.00;;;;;14.35;58.77;101164.25;5030361;28;46626;-78
2022/11/05 13:12:01;;;;;;;;;2.00;2.00;;;;;14.36;59.13;101154.56;4971094;28;46211;-74
2022/11/05 13:14:52;;;;;;;;;3.00;2.50;;;;;14.34;58.89;101145.91;4988341;28;45791;-76
2022/11/05 13:17:23;;;;;;;;;3.75;2.25;;;;;14.42;59.34;101152.28;4982616;28;45762;-78
2022/11/05 13:20:01;;;;;;;;;2.00;2.00;;;;;14.43;59.17;101153.97;4986744;28;46474;-78
2022/11/05 13:22:35;;;;;;;;;3.00;3.00;;;;;14.42;59.38;101139.09;4992570;28;46093;-78
2022/11/05 13:25:09;;;;;;;;;2.75;2.00;;;;;14.52;59.06;101158.50;4993008;28;45843;-77
2022/11/05 13:27:47;;;;;;;;;2.00;1.25;;;;;14.54;58.44;101164.50;4991155;28;45951;-77
2022/11/05 13:30:56;;;;;;;;;;;;;;;;;;;;;
2022/11/05 13:33:26;;;;;;;;;4.25;3.00;;;;;14.52;58.11;101168.25;4992145;28;76812;-76
2022/11/05 13:39:02;;;;;;;;;2.25;1.75;;;;;14.45;58.04;101181.06;4993820;28;45728;-76
2022/11/05 13:45:10;;;;;;;;;1.50;1.50;;;;;14.38;58.30;101174.56;4993988;28;45661;-77
2022/11/05 13:48:22;;;;;;;;;1.00;1.00;;;;;14.36;58.47;101170.38;5018427;28;45903;-78
2022/11/05 13:50:59;;;;;;;;;2.75;2.00;;;;;14.33;58.65;101166.16;5075276;28;45902;-77
2022/11/05 13:54:16;;;;;;;;;3.00;2.00;;;;;14.25;58.46;101158.84;5075207;28;45899;-79
2022/11/05 13:57:00;;;;;;;;;1.00;1.00;;;;;14.24;58.74;101165.09;5071507;28;45958;-77
2022/11/05 13:59:34;;;;;;;;;2.00;2.00;;;;;14.21;58.59;101154.75;5074518;28;45606;-78
2022/11/05 14:02:12;;;;;;;;;2.25;2.25;;;;;14.20;58.86;101153.06;5056616;28;45946;-76
2022/11/05 14:04:46;;;;;;;;;3.00;3.00;;;;;14.20;58.75;101168.03;5073419;28;45611;-76
2022/11/05 14:07:16;;;;;;;;;2.00;2.00;;;;;14.10;58.98;101149.47;5072910;28;46709;-79
2022/11/05 14:09:58;;;;;;;;;3.75;3.00;;;;;14.21;59.14;101156.56;5073563;28;45707;-74
2022/11/05 14:12:34;;;;;;;;;5.75;3.50;;;;;14.09;59.23;101134.63;5074719;28;45786;-74